Robert Lee, Texas
Current Conditions -  °F | °C
As of 11:51 PM on Monday 26 Jan 2015 (Local Time) from KSJT Reporting Station
Clear Clear  
Wind Chill: 43°   Ceiling: Unl
Heat Index: 45°   Visibility: 10mi
Dew Point: 36°   Wind: 5mph
Humidity: 71%   Direction: 290°WNW
Pressure: 30.21"   Gusts: NA
Location:  31.89°N, 100.48°W
Report Text: KSJT 270551Z AUTO 29004KT 10SM CLR 07/02 A3021 RMK AO2 SLP229 T00720022 10167 20056 402060017 50000
Loading
Personal Weather Stations






























Interactive Weather Map New forecast layout! Learn more

10-Day Weather Forecast

Advertisements
Track Severe Weather on mobile